aviador You're here:

KFAM Decoded Metar

FARMINGTON in MO, USA
Report Time2017-08-19 13:56:00
UTC Time2017-08-19 15:00:17
Flight Rules vfr VFR
WindVRB at 05 kt
Visibility9999 m
Phenomena:N/A
Clouds:N/A
Expected CloudBase > 2,000 ft AGL from Temp-Dew spread
CeilingNone
Temp26°C (ISA +13)
Dew Point21°C (74% RH)
QNH1015 hPa
Density Alt2,697 ft
Elevation945 ft
Report Wrong Elevation
Raw Report
KFAM 191356Z AUTO VRB05KT 10SM CLR 26/21 A2998 RMK AO2 SLP141
T02560211=

Extra information for KFAM:More info

Metar Taf Metar & Taf Last 4 Metars F.Rules Stats Wind Profile Meteogram Temp Stats Airport Information Weather charts Add Link Nearby VenuesMetar ALERT Operation Metar Decoded Social comments

AIRNAV info for KFAM